createdAt,value
2018-12-13T00:00:49.018Z,5.20
2018-12-13T00:01:49.035Z,5.11
2018-12-13T00:02:49.173Z,5.18
2018-12-13T00:04:10.061Z,5.15
2018-12-13T00:04:49.053Z,5.21
2018-12-13T00:05:49.059Z,5.18
2018-12-13T00:06:49.081Z,5.25
2018-12-13T00:07:49.076Z,5.20
2018-12-13T00:08:49.088Z,5.18
2018-12-13T00:10:10.113Z,5.25
2018-12-13T00:10:49.116Z,5.14
2018-12-13T00:11:49.116Z,5.15
2018-12-13T00:12:49.125Z,5.25
2018-12-13T00:13:49.153Z,5.21
2018-12-13T00:14:49.166Z,5.25
2018-12-13T00:16:10.171Z,5.20
2018-12-13T00:16:49.173Z,5.23
2018-12-13T00:17:49.189Z,5.20
2018-12-13T00:18:49.199Z,5.26
2018-12-13T00:19:49.211Z,5.23
2018-12-13T00:20:49.234Z,5.32
2018-12-13T00:22:10.232Z,5.25
2018-12-13T00:22:49.242Z,5.21
2018-12-13T00:23:49.240Z,5.29
2018-12-13T00:24:49.250Z,5.23
2018-12-13T00:25:49.277Z,5.25
2018-12-13T00:26:49.346Z,5.25
2018-12-13T00:28:10.316Z,5.26
2018-12-13T00:28:49.307Z,5.25
2018-12-13T00:29:49.328Z,5.25
2018-12-13T00:30:49.316Z,5.28
2018-12-13T00:31:49.330Z,5.26
2018-12-13T00:32:49.345Z,5.25
2018-12-13T00:34:10.372Z,5.28
2018-12-13T00:34:49.352Z,5.28
2018-12-13T00:35:49.371Z,5.28
2018-12-13T00:36:49.395Z,5.20
2018-12-13T00:37:49.386Z,5.21
2018-12-13T00:38:49.417Z,5.28
2018-12-13T00:40:10.436Z,5.26
2018-12-13T00:40:49.433Z,5.21
2018-12-13T00:41:49.455Z,5.26
2018-12-13T00:42:49.465Z,5.25
2018-12-13T00:43:49.456Z,5.25
2018-12-13T00:44:49.467Z,5.18
2018-12-13T00:46:10.494Z,5.20
2018-12-13T00:46:49.492Z,5.17
2018-12-13T00:47:49.513Z,5.23
2018-12-13T00:48:49.511Z,5.20
2018-12-13T00:49:49.524Z,5.20
2018-12-13T00:50:49.536Z,5.23
2018-12-13T00:52:10.553Z,5.17
2018-12-13T00:52:49.563Z,5.25
2018-12-13T00:53:49.558Z,5.28
2018-12-13T00:54:49.569Z,5.25
2018-12-13T00:55:49.588Z,5.29
2018-12-13T00:56:49.592Z,5.18
2018-12-13T00:58:10.617Z,5.25
2018-12-13T00:58:49.613Z,5.25
2018-12-13T00:59:49.630Z,5.18
2018-12-13T01:00:49.629Z,5.28
2018-12-13T01:01:49.637Z,5.30
2018-12-13T01:02:49.669Z,5.29
2018-12-13T01:04:10.672Z,5.28
2018-12-13T01:04:49.675Z,5.28
2018-12-13T01:05:49.674Z,5.20
2018-12-13T01:06:49.701Z,5.23
2018-12-13T01:07:49.701Z,5.35
2018-12-13T01:08:49.732Z,5.21
2018-12-13T01:10:10.741Z,5.23
2018-12-13T01:10:49.739Z,5.26
2018-12-13T01:11:49.737Z,5.23
2018-12-13T01:12:49.759Z,5.26
2018-12-13T01:13:49.767Z,5.25
2018-12-13T01:14:49.771Z,5.21
2018-12-13T01:16:10.793Z,5.23
2018-12-13T01:16:49.799Z,5.26
2018-12-13T01:17:49.801Z,5.26
2018-12-13T01:18:49.814Z,5.20
2018-12-13T01:19:49.829Z,5.17
2018-12-13T01:20:49.847Z,5.15
2018-12-13T01:22:10.891Z,5.14
2018-12-13T01:22:49.867Z,5.15
2018-12-13T01:23:49.869Z,5.14
2018-12-13T01:24:49.879Z,5.14
2018-12-13T01:25:49.901Z,5.14
2018-12-13T01:26:49.893Z,5.14
2018-12-13T01:28:11.035Z,5.08
2018-12-13T01:28:49.925Z,5.07
2018-12-13T01:29:49.949Z,5.11
2018-12-13T01:30:49.935Z,5.08
2018-12-13T01:31:49.941Z,5.10
2018-12-13T01:32:49.970Z,5.11
2018-12-13T01:34:11.001Z,5.11
2018-12-13T01:34:49.986Z,5.11
2018-12-13T01:35:49.990Z,5.10
2018-12-13T01:36:52.538Z,5.10
2018-12-13T01:37:50.024Z,5.11
2018-12-13T01:38:50.021Z,5.14
2018-12-13T01:40:11.051Z,5.12
2018-12-13T01:40:50.037Z,5.08
2018-12-13T01:41:50.062Z,5.11
2018-12-13T01:42:50.073Z,5.10
2018-12-13T01:43:50.088Z,5.11
2018-12-13T01:44:50.091Z,5.08
2018-12-13T01:46:11.102Z,5.08
2018-12-13T01:46:50.101Z,5.07
2018-12-13T01:47:50.117Z,5.10
2018-12-13T01:48:50.142Z,5.05
2018-12-13T01:49:50.160Z,5.04
2018-12-13T01:50:50.142Z,4.96
2018-12-13T01:52:11.173Z,4.99
2018-12-13T01:52:50.166Z,4.92
2018-12-13T01:53:50.185Z,5.05
2018-12-13T01:54:50.197Z,4.92
2018-12-13T01:55:50.189Z,4.90
2018-12-13T01:56:50.205Z,5.00
2018-12-13T01:58:11.231Z,4.87
2018-12-13T01:58:50.218Z,4.90
2018-12-13T01:59:50.241Z,4.92
2018-12-13T02:00:50.240Z,4.84
2018-12-13T02:01:50.269Z,4.90
2018-12-13T02:02:50.271Z,4.80
2018-12-13T02:04:11.292Z,4.86
2018-12-13T02:04:50.296Z,4.80
2018-12-13T02:05:50.295Z,4.86
2018-12-13T02:06:50.307Z,4.73
2018-12-13T02:07:50.338Z,4.73
2018-12-13T02:08:50.329Z,4.73
2018-12-13T02:10:11.346Z,4.74
2018-12-13T02:10:50.347Z,4.73
2018-12-13T02:11:50.353Z,4.66
2018-12-13T02:12:50.370Z,4.77
2018-12-13T02:13:50.379Z,4.71
2018-12-13T02:14:50.398Z,4.74
2018-12-13T02:16:11.417Z,4.63
2018-12-13T02:16:50.416Z,4.75
2018-12-13T02:17:50.441Z,4.73
2018-12-13T02:18:50.423Z,4.59
2018-12-13T02:19:50.461Z,4.68
2018-12-13T02:20:50.443Z,4.66
2018-12-13T02:22:11.476Z,4.60
2018-12-13T02:22:50.477Z,4.63
2018-12-13T02:23:50.507Z,4.71
2018-12-13T02:24:50.493Z,4.70
2018-12-13T02:25:50.505Z,4.58
2018-12-13T02:26:50.517Z,4.60
2018-12-13T02:28:11.534Z,4.53
2018-12-13T02:28:50.532Z,4.50
2018-12-13T02:29:50.543Z,4.53
2018-12-13T02:30:50.577Z,4.52
2018-12-13T02:31:50.564Z,4.53
2018-12-13T02:32:50.566Z,4.49
2018-12-13T02:34:11.589Z,4.45
2018-12-13T02:34:50.585Z,4.44
2018-12-13T02:35:50.597Z,4.49
2018-12-13T02:36:50.597Z,4.58
2018-12-13T02:37:50.631Z,4.58
2018-12-13T02:38:50.634Z,4.58
2018-12-13T02:40:11.643Z,4.53
2018-12-13T02:40:50.655Z,4.53
2018-12-13T02:41:50.659Z,4.59
2018-12-13T02:42:50.669Z,4.60
2018-12-13T02:43:50.675Z,4.62
2018-12-13T02:44:50.812Z,4.60
2018-12-13T02:46:11.707Z,4.60
2018-12-13T02:46:50.713Z,4.53
2018-12-13T02:47:50.735Z,4.55
2018-12-13T02:48:50.726Z,4.58
2018-12-13T02:49:50.737Z,4.59
2018-12-13T02:50:50.739Z,4.50
2018-12-13T02:52:11.756Z,4.45
2018-12-13T02:52:50.761Z,4.48
2018-12-13T02:53:50.778Z,4.45
2018-12-13T02:54:50.782Z,4.50
2018-12-13T02:55:50.813Z,4.50
2018-12-13T02:56:50.803Z,4.45
2018-12-13T02:58:11.812Z,4.35
2018-12-13T02:58:50.815Z,4.42
2018-12-13T02:59:50.833Z,4.48
2018-12-13T03:00:50.836Z,4.38
2018-12-13T03:01:50.858Z,4.37
2018-12-13T03:02:50.859Z,4.40
2018-12-13T03:04:11.873Z,4.41
2018-12-13T03:04:50.877Z,4.38
2018-12-13T03:05:50.882Z,4.34
2018-12-13T03:06:50.908Z,4.37
2018-12-13T03:07:50.914Z,4.38
2018-12-13T03:08:50.949Z,4.30
2018-12-13T03:10:11.939Z,4.32
2018-12-13T03:10:51.080Z,4.22
2018-12-13T03:11:50.969Z,4.31
2018-12-13T03:12:50.970Z,4.20
2018-12-13T03:13:50.976Z,4.24
2018-12-13T03:14:51.088Z,4.20
2018-12-13T03:16:12.001Z,4.17
2018-12-13T03:16:51.042Z,4.28
2018-12-13T03:17:51.002Z,4.14
2018-12-13T03:18:51.029Z,4.24
2018-12-13T03:19:51.028Z,4.13
2018-12-13T03:20:51.080Z,4.10
2018-12-13T03:22:12.063Z,4.14
2018-12-13T03:22:51.061Z,4.22
2018-12-13T03:23:51.074Z,4.14
2018-12-13T03:24:51.083Z,4.12
2018-12-13T03:25:51.079Z,4.28
2018-12-13T03:26:51.129Z,4.19
2018-12-13T03:28:12.118Z,4.23
2018-12-13T03:28:51.114Z,4.13
2018-12-13T03:29:51.121Z,4.16
2018-12-13T03:30:51.152Z,4.13
2018-12-13T03:31:51.136Z,4.16
2018-12-13T03:32:51.189Z,4.13
2018-12-13T03:34:12.186Z,4.16
2018-12-13T03:34:51.171Z,4.17
2018-12-13T03:35:51.174Z,4.17
2018-12-13T03:36:51.188Z,4.17
2018-12-13T03:37:51.201Z,4.20
2018-12-13T03:38:51.225Z,4.14
2018-12-13T03:40:12.231Z,4.08
2018-12-13T03:40:51.219Z,4.08
2018-12-13T03:41:51.228Z,4.17
2018-12-13T03:42:51.236Z,4.12
2018-12-13T03:43:51.257Z,4.10
2018-12-13T03:44:51.269Z,4.04
2018-12-13T03:46:12.298Z,4.05
2018-12-13T03:46:51.284Z,4.14
2018-12-13T03:47:51.277Z,4.10
2018-12-13T03:48:51.298Z,4.17
2018-12-13T03:49:51.300Z,4.17
2018-12-13T03:50:51.317Z,4.13
2018-12-13T03:52:12.340Z,4.16
2018-12-13T03:52:51.330Z,4.14
2018-12-13T03:53:51.350Z,4.14
2018-12-13T03:54:51.354Z,4.16
2018-12-13T03:55:51.356Z,4.14
2018-12-13T03:56:51.393Z,4.10
2018-12-13T03:58:12.388Z,3.99
2018-12-13T03:58:51.393Z,4.04
2018-12-13T03:59:51.411Z,4.08
2018-12-13T04:00:51.410Z,4.08
2018-12-13T04:01:51.417Z,4.10
2018-12-13T04:02:51.436Z,4.02
2018-12-13T04:04:12.445Z,4.05
2018-12-13T04:04:51.437Z,3.98
2018-12-13T04:05:51.449Z,3.95
2018-12-13T04:06:51.462Z,3.98
2018-12-13T04:07:51.476Z,3.99
2018-12-13T04:08:51.490Z,4.04
2018-12-13T04:10:12.485Z,3.84
2018-12-13T04:10:51.498Z,4.01
2018-12-13T04:11:51.498Z,3.91
2018-12-13T04:12:51.513Z,3.86
2018-12-13T04:13:51.535Z,3.87
2018-12-13T04:14:51.546Z,3.92
2018-12-13T04:16:12.574Z,3.88
2018-12-13T04:16:51.560Z,3.86
2018-12-13T04:17:51.575Z,3.91
2018-12-13T04:18:51.577Z,3.87
2018-12-13T04:19:51.576Z,3.87
2018-12-13T04:20:51.596Z,3.87
2018-12-13T04:22:12.616Z,3.87
2018-12-13T04:22:51.619Z,3.88
2018-12-13T04:23:51.619Z,3.91
2018-12-13T04:24:51.630Z,3.94
2018-12-13T04:25:51.641Z,3.99
2018-12-13T04:26:51.653Z,3.86
2018-12-13T04:28:12.661Z,3.94
2018-12-13T04:28:51.665Z,3.91
2018-12-13T04:29:51.683Z,3.87
2018-12-13T04:30:51.692Z,3.87
2018-12-13T04:31:51.707Z,3.88
2018-12-13T04:32:51.705Z,3.83
2018-12-13T04:34:12.727Z,3.87
2018-12-13T04:34:51.727Z,3.92
2018-12-13T04:35:51.759Z,3.92
2018-12-13T04:36:51.737Z,3.88
2018-12-13T04:37:51.755Z,3.81
2018-12-13T04:38:51.750Z,3.84
2018-12-13T04:40:12.781Z,3.87
2018-12-13T04:40:51.778Z,3.84
2018-12-13T04:41:51.787Z,3.76
2018-12-13T04:42:51.803Z,3.78
2018-12-13T04:43:51.807Z,3.80
2018-12-13T04:44:51.825Z,3.83
2018-12-13T04:46:12.827Z,3.83
2018-12-13T04:46:51.835Z,3.73
2018-12-13T04:47:51.848Z,3.73
2018-12-13T04:48:51.841Z,3.73
2018-12-13T04:49:51.859Z,3.73
2018-12-13T04:50:51.860Z,3.70
2018-12-13T04:52:12.897Z,3.68
2018-12-13T04:52:51.881Z,3.69
2018-12-13T04:53:51.897Z,3.69
2018-12-13T04:54:51.897Z,3.74
2018-12-13T04:55:51.921Z,3.66
2018-12-13T04:56:51.930Z,3.76
2018-12-13T04:58:12.996Z,3.70
2018-12-13T04:58:51.934Z,3.65
2018-12-13T04:59:51.958Z,3.68
2018-12-13T05:00:51.956Z,3.69
2018-12-13T05:01:51.978Z,3.70
2018-12-13T05:02:51.976Z,3.62
2018-12-13T05:04:13.108Z,3.65
2018-12-13T05:04:51.996Z,3.68
2018-12-13T05:05:52.007Z,3.69
2018-12-13T05:06:52.013Z,3.65
2018-12-13T05:07:52.078Z,3.66
2018-12-13T05:08:52.034Z,3.65
2018-12-13T05:10:13.072Z,3.69
2018-12-13T05:10:52.064Z,3.65
2018-12-13T05:11:52.064Z,3.63
2018-12-13T05:12:52.076Z,3.69
2018-12-13T05:13:52.095Z,3.65
2018-12-13T05:14:52.094Z,3.55
2018-12-13T05:16:13.141Z,3.56
2018-12-13T05:16:52.116Z,3.50
2018-12-13T05:17:52.102Z,3.58
2018-12-13T05:18:52.118Z,3.53
2018-12-13T05:19:52.140Z,3.53
2018-12-13T05:20:52.157Z,3.63
2018-12-13T05:22:13.162Z,3.50
2018-12-13T05:22:52.165Z,3.55
2018-12-13T05:23:52.174Z,3.66
2018-12-13T05:24:52.170Z,3.51
2018-12-13T05:25:52.182Z,3.48
2018-12-13T05:26:52.197Z,3.51
2018-12-13T05:28:13.220Z,3.53
2018-12-13T05:28:52.219Z,3.44
2018-12-13T05:29:52.224Z,3.42
2018-12-13T05:30:52.250Z,3.45
2018-12-13T05:31:52.254Z,3.41
2018-12-13T05:32:52.270Z,3.44
2018-12-13T05:34:13.274Z,3.36
2018-12-13T05:34:52.266Z,3.32
2018-12-13T05:35:52.318Z,3.32
2018-12-13T05:36:52.285Z,3.32
2018-12-13T05:37:52.292Z,3.31
2018-12-13T05:38:52.306Z,3.25
2018-12-13T05:40:13.334Z,3.23
2018-12-13T05:40:52.313Z,3.16
2018-12-13T05:41:52.339Z,3.26
2018-12-13T05:42:52.341Z,3.14
2018-12-13T05:43:52.351Z,3.23
2018-12-13T05:44:52.361Z,3.16
2018-12-13T05:46:13.378Z,3.11
2018-12-13T05:46:52.370Z,3.18
2018-12-13T05:47:52.384Z,3.19
2018-12-13T05:48:52.400Z,3.10
2018-12-13T05:49:52.395Z,3.21
2018-12-13T05:50:52.414Z,3.22
2018-12-13T05:52:13.442Z,3.14
2018-12-13T05:52:52.435Z,3.16
2018-12-13T05:53:52.448Z,3.13
2018-12-13T05:54:52.460Z,3.07
2018-12-13T05:55:52.531Z,3.10
2018-12-13T05:56:52.466Z,3.05
2018-12-13T05:58:13.492Z,3.08
2018-12-13T05:58:52.476Z,3.07
2018-12-13T05:59:52.542Z,3.07
2018-12-13T06:00:52.512Z,3.08
2018-12-13T06:01:52.647Z,3.11
2018-12-13T06:02:52.532Z,3.11
2018-12-13T06:04:13.585Z,3.07
2018-12-13T06:04:52.537Z,3.08
2018-12-13T06:05:52.591Z,3.08
2018-12-13T06:06:52.553Z,3.08
2018-12-13T06:07:55.033Z,3.05
2018-12-13T06:08:52.589Z,3.05
2018-12-13T06:10:13.594Z,3.00
2018-12-13T06:10:52.592Z,2.98
2018-12-13T06:11:52.611Z,2.92
2018-12-13T06:12:52.610Z,3.03
2018-12-13T06:13:52.693Z,2.97
2018-12-13T06:14:52.631Z,3.00
2018-12-13T06:16:13.641Z,3.01
2018-12-13T06:16:52.658Z,3.01
2018-12-13T06:17:52.763Z,2.97
2018-12-13T06:18:52.656Z,2.98
2018-12-13T06:19:52.674Z,3.05
2018-12-13T06:20:52.708Z,3.03
2018-12-13T06:22:13.694Z,2.93
2018-12-13T06:22:52.690Z,2.95
2018-12-13T06:23:52.735Z,3.01
2018-12-13T06:24:52.716Z,3.07
2018-12-13T06:25:52.713Z,3.07
2018-12-13T06:26:52.733Z,3.03
2018-12-13T06:28:13.739Z,3.08
2018-12-13T06:28:52.783Z,3.11
2018-12-13T06:29:58.700Z,3.13
2018-12-13T06:30:52.761Z,3.08
2018-12-13T06:31:52.862Z,3.11
2018-12-13T06:32:52.790Z,3.04
2018-12-13T06:34:13.864Z,3.11
2018-12-13T06:34:52.801Z,3.11
2018-12-13T06:35:52.832Z,3.11
2018-12-13T06:36:52.821Z,3.11
2018-12-13T06:37:52.833Z,3.07
2018-12-13T06:38:52.837Z,3.05
2018-12-13T06:40:15.675Z,3.00
2018-12-13T06:40:52.856Z,3.05
2018-12-13T06:41:52.881Z,3.08
2018-12-13T06:42:52.893Z,3.05
2018-12-13T06:43:52.949Z,2.93
2018-12-13T06:44:52.910Z,2.97
2018-12-13T06:46:13.921Z,3.00
2018-12-13T06:46:52.915Z,3.00
2018-12-13T06:47:52.927Z,3.11
2018-12-13T06:48:52.929Z,3.05
2018-12-13T06:49:52.928Z,3.11
2018-12-13T06:50:52.950Z,3.13
2018-12-13T06:52:13.970Z,3.11
2018-12-13T06:52:52.951Z,3.13
2018-12-13T06:53:52.995Z,3.22
2018-12-13T06:54:52.990Z,3.14
2018-12-13T06:55:52.993Z,3.13
2018-12-13T06:56:53.025Z,3.14
2018-12-13T06:58:14.021Z,3.19
2018-12-13T06:58:53.048Z,3.11
2018-12-13T06:59:53.021Z,3.14
2018-12-13T07:00:53.031Z,3.19
2018-12-13T07:01:53.042Z,3.19
2018-12-13T07:02:53.073Z,3.13
2018-12-13T07:04:14.059Z,3.11
2018-12-13T07:04:53.055Z,3.16
2018-12-13T07:05:53.063Z,3.13
2018-12-13T07:06:53.083Z,3.13
2018-12-13T07:07:53.077Z,3.13
2018-12-13T07:08:53.131Z,3.10
2018-12-13T07:10:14.132Z,3.14
2018-12-13T07:10:53.289Z,3.22
2018-12-13T07:11:53.112Z,3.05
2018-12-13T07:12:53.147Z,3.18
2018-12-13T07:13:53.133Z,3.13
2018-12-13T07:14:53.313Z,3.11
2018-12-13T07:16:14.161Z,3.19
2018-12-13T07:16:53.302Z,3.13
2018-12-13T07:17:53.193Z,3.16
2018-12-13T07:18:53.742Z,3.11
2018-12-13T07:19:53.183Z,3.11
2018-12-13T07:20:53.229Z,3.18
2018-12-13T07:22:14.232Z,3.18
2018-12-13T07:22:53.306Z,3.14
2018-12-13T07:23:53.218Z,3.10
2018-12-13T07:24:53.283Z,3.07
2018-12-13T07:25:53.250Z,3.05
2018-12-13T07:26:53.264Z,3.08
2018-12-13T07:28:14.271Z,3.11
2018-12-13T07:28:53.326Z,3.10
2018-12-13T07:29:53.276Z,3.11
2018-12-13T07:30:53.339Z,3.05
2018-12-13T07:31:53.291Z,3.10
2018-12-13T07:32:53.304Z,3.04
2018-12-13T07:34:14.313Z,3.01
2018-12-13T07:34:53.317Z,2.95
2018-12-13T07:35:53.342Z,3.05
2018-12-13T07:36:53.388Z,3.00
2018-12-13T07:37:53.350Z,3.00
2018-12-13T07:38:53.354Z,2.92
2018-12-13T07:40:14.374Z,2.86
2018-12-13T07:40:53.370Z,2.85
2018-12-13T07:41:53.438Z,2.89
2018-12-13T07:42:53.410Z,2.89
2018-12-13T07:43:53.397Z,2.87
2018-12-13T07:44:53.498Z,2.89
2018-12-13T07:46:14.419Z,2.90
2018-12-13T07:46:53.424Z,2.85
2018-12-13T07:47:53.423Z,2.85
2018-12-13T07:48:56.484Z,2.86
2018-12-13T07:49:53.451Z,2.90
2018-12-13T07:50:53.458Z,3.01
2018-12-13T07:52:14.518Z,2.97
2018-12-13T07:52:53.477Z,3.05
2018-12-13T07:53:53.490Z,3.08
2018-12-13T07:54:53.484Z,3.04
2018-12-13T07:55:53.504Z,3.11
2018-12-13T07:56:53.517Z,3.03
2018-12-13T07:58:14.526Z,2.90
2018-12-13T07:58:53.519Z,3.07
2018-12-13T07:59:53.528Z,3.11
2018-12-13T08:00:53.541Z,3.14
2018-12-13T08:01:53.611Z,3.10
2018-12-13T08:02:53.577Z,3.13
2018-12-13T08:04:14.594Z,3.10
2018-12-13T08:04:53.586Z,3.14
2018-12-13T08:05:53.603Z,3.01
2018-12-13T08:06:53.602Z,3.08
2018-12-13T08:07:53.609Z,3.05
2018-12-13T08:08:53.622Z,3.10
2018-12-13T08:10:14.632Z,3.08
2018-12-13T08:10:53.631Z,3.05
2018-12-13T08:11:53.665Z,3.03
2018-12-13T08:12:53.635Z,3.03
2018-12-13T08:13:53.666Z,3.11
2018-12-13T08:14:53.690Z,3.05
2018-12-13T08:16:14.703Z,3.16
2018-12-13T08:16:53.683Z,3.08
2018-12-13T08:17:53.734Z,3.05
2018-12-13T08:18:53.716Z,3.11
2018-12-13T08:19:53.747Z,3.07
2018-12-13T08:20:53.730Z,3.10
2018-12-13T08:22:14.737Z,3.11
2018-12-13T08:22:53.737Z,3.10
2018-12-13T08:23:53.757Z,3.08
2018-12-13T08:24:53.768Z,3.10
2018-12-13T08:25:53.764Z,3.11
2018-12-13T08:26:53.763Z,3.03
2018-12-13T08:28:14.822Z,2.93
2018-12-13T08:28:53.794Z,2.97
2018-12-13T08:29:53.794Z,2.97
2018-12-13T08:30:53.804Z,3.01
2018-12-13T08:31:53.810Z,3.03
2018-12-13T08:32:53.820Z,2.95
2018-12-13T08:34:14.838Z,3.00
2018-12-13T08:34:53.834Z,2.90
2018-12-13T08:35:53.843Z,2.97
2018-12-13T08:36:53.850Z,3.03
2018-12-13T08:37:53.883Z,3.01
2018-12-13T08:38:53.873Z,3.05
2018-12-13T08:40:14.892Z,3.03
2018-12-13T08:40:53.881Z,2.95
2018-12-13T08:41:53.905Z,3.05
2018-12-13T08:42:53.933Z,2.89
2018-12-13T08:43:53.922Z,2.77
2018-12-13T08:44:53.910Z,2.89
2018-12-13T08:46:14.930Z,2.89
2018-12-13T08:46:53.928Z,2.92
2018-12-13T08:47:53.946Z,2.92
2018-12-13T08:48:53.966Z,2.87
2018-12-13T08:49:53.968Z,2.87
2018-12-13T08:50:54.403Z,3.00
2018-12-13T08:52:15.010Z,2.93
2018-12-13T08:52:54.006Z,2.93
2018-12-13T08:53:53.999Z,2.97
2018-12-13T08:54:54.004Z,3.05
2018-12-13T08:55:54.022Z,3.05
2018-12-13T08:56:54.031Z,3.13
2018-12-13T08:58:15.049Z,3.13
2018-12-13T08:58:54.050Z,3.05
2018-12-13T08:59:54.062Z,3.07
2018-12-13T09:00:54.056Z,3.11
2018-12-13T09:01:54.067Z,3.21
2018-12-13T09:02:54.088Z,3.14
2018-12-13T09:04:15.107Z,3.28
2018-12-13T09:04:54.096Z,3.14
2018-12-13T09:05:54.105Z,3.26
2018-12-13T09:06:54.112Z,3.25
2018-12-13T09:07:54.117Z,3.34
2018-12-13T09:08:54.132Z,3.29
2018-12-13T09:10:15.223Z,3.29
2018-12-13T09:10:54.166Z,3.28
2018-12-13T09:11:54.204Z,3.37
2018-12-13T09:12:54.193Z,3.34
2018-12-13T09:13:54.175Z,3.29
2018-12-13T09:14:54.210Z,3.42
2018-12-13T09:16:15.237Z,3.41
2018-12-13T09:16:54.218Z,3.44
2018-12-13T09:17:54.231Z,3.53
2018-12-13T09:18:54.223Z,3.53
2018-12-13T09:19:54.243Z,3.53
2018-12-13T09:20:54.226Z,3.51
2018-12-13T09:22:15.371Z,3.51
2018-12-13T09:22:54.271Z,3.50
2018-12-13T09:23:54.276Z,3.56
2018-12-13T09:24:54.279Z,3.53
2018-12-13T09:25:54.281Z,3.62
2018-12-13T09:26:54.305Z,3.60
2018-12-13T09:28:15.331Z,3.56
2018-12-13T09:28:54.312Z,3.56
2018-12-13T09:29:54.317Z,3.51
2018-12-13T09:30:54.418Z,3.58
2018-12-13T09:31:54.335Z,3.53
2018-12-13T09:32:54.409Z,3.62
2018-12-13T09:34:15.376Z,3.69
2018-12-13T09:34:54.374Z,3.69
2018-12-13T09:35:54.358Z,3.58
2018-12-13T09:36:54.369Z,3.55
2018-12-13T09:37:54.377Z,3.55
2018-12-13T09:38:54.396Z,3.50
2018-12-13T09:40:15.420Z,3.44
2018-12-13T09:40:54.410Z,3.42
2018-12-13T09:41:54.413Z,3.41
2018-12-13T09:42:54.425Z,3.42
2018-12-13T09:43:54.440Z,3.50
2018-12-13T09:44:54.443Z,3.44
2018-12-13T09:46:15.472Z,3.48
2018-12-13T09:46:54.476Z,3.48
2018-12-13T09:47:54.472Z,3.55
2018-12-13T09:48:54.486Z,3.51
2018-12-13T09:49:54.500Z,3.68
2018-12-13T09:50:54.516Z,3.70
2018-12-13T09:52:15.522Z,3.74
2018-12-13T09:52:54.530Z,3.77
2018-12-13T09:53:54.524Z,3.84
2018-12-13T09:54:54.529Z,3.91
2018-12-13T09:55:54.531Z,4.06
2018-12-13T09:56:54.548Z,4.13
2018-12-13T09:58:15.561Z,4.19
2018-12-13T09:58:54.573Z,4.35
2018-12-13T09:59:54.583Z,4.37
2018-12-13T10:00:54.591Z,4.49
2018-12-13T10:01:54.606Z,4.60
2018-12-13T10:02:54.603Z,4.70
2018-12-13T10:04:15.629Z,4.73
2018-12-13T10:04:54.621Z,4.70
2018-12-13T10:05:54.644Z,4.87
2018-12-13T10:06:54.643Z,4.93
2018-12-13T10:07:54.643Z,4.86
2018-12-13T10:08:54.661Z,4.92
2018-12-13T10:10:15.697Z,5.02
2018-12-13T10:10:54.718Z,5.08
2018-12-13T10:11:54.682Z,5.07
2018-12-13T10:12:54.698Z,5.17
2018-12-13T10:13:54.710Z,5.20
2018-12-13T10:14:54.752Z,5.11
2018-12-13T10:16:15.744Z,5.18
2018-12-13T10:16:54.731Z,5.25
2018-12-13T10:17:54.750Z,5.18
2018-12-13T10:18:54.756Z,5.28
2018-12-13T10:19:54.771Z,5.21
2018-12-13T10:20:54.774Z,5.25
2018-12-13T10:22:15.793Z,5.36
2018-12-13T10:22:54.780Z,5.35
2018-12-13T10:23:54.791Z,5.44
2018-12-13T10:24:54.835Z,5.48
2018-12-13T10:25:59.504Z,5.50
2018-12-13T10:26:54.827Z,5.51
2018-12-13T10:28:15.853Z,5.46
2018-12-13T10:28:54.864Z,5.54
2018-12-13T10:29:54.919Z,5.65
2018-12-13T10:30:54.872Z,5.66
2018-12-13T10:31:54.905Z,5.62
2018-12-13T10:32:54.889Z,5.80
2018-12-13T10:34:15.915Z,5.76
2018-12-13T10:34:54.913Z,5.65
2018-12-13T10:35:54.963Z,5.68
2018-12-13T10:36:54.936Z,5.65
2018-12-13T10:37:54.947Z,5.64
2018-12-13T10:38:54.945Z,5.65
2018-12-13T10:40:15.953Z,5.76
2018-12-13T10:40:54.972Z,5.84
2018-12-13T10:41:55.055Z,5.82
2018-12-13T10:42:54.982Z,5.75
2018-12-13T10:43:55.031Z,5.80
2018-12-13T10:44:55.044Z,5.69
2018-12-13T10:46:16.031Z,5.68
2018-12-13T10:46:55.030Z,5.68
2018-12-13T10:47:55.042Z,5.62
2018-12-13T10:48:55.053Z,5.65
2018-12-13T10:49:55.053Z,5.61
2018-12-13T10:50:55.077Z,5.79
2018-12-13T10:52:16.087Z,5.73
2018-12-13T10:52:55.087Z,5.84
2018-12-13T10:53:55.106Z,5.84
2018-12-13T10:54:55.111Z,5.99
2018-12-13T10:55:55.138Z,6.08
2018-12-13T10:56:55.117Z,6.05
2018-12-13T10:58:16.143Z,5.94
2018-12-13T10:58:55.146Z,5.91
2018-12-13T10:59:55.163Z,5.87
2018-12-13T11:00:55.177Z,5.75
2018-12-13T11:01:55.189Z,5.72
2018-12-13T11:02:55.185Z,5.62
2018-12-13T11:04:16.217Z,5.53
2018-12-13T11:04:55.210Z,5.41
2018-12-13T11:05:55.219Z,5.39
2018-12-13T11:06:55.234Z,5.41
2018-12-13T11:07:55.250Z,5.26
2018-12-13T11:08:59.370Z,5.35
2018-12-13T11:10:16.283Z,5.23
2018-12-13T11:10:55.265Z,5.25
2018-12-13T11:11:55.279Z,5.25
2018-12-13T11:12:55.291Z,5.29
2018-12-13T11:13:55.310Z,5.38
2018-12-13T11:14:55.321Z,5.48
2018-12-13T11:16:16.327Z,5.57
2018-12-13T11:16:55.331Z,5.56
2018-12-13T11:17:55.340Z,5.71
2018-12-13T11:18:55.363Z,5.83
2018-12-13T11:19:55.356Z,5.99
2018-12-13T11:20:55.407Z,5.98
2018-12-13T11:22:16.391Z,6.04
2018-12-13T11:22:55.402Z,6.09
2018-12-13T11:23:55.396Z,6.01
2018-12-13T11:24:56.244Z,5.97
2018-12-13T11:25:55.428Z,5.98
2018-12-13T11:26:55.457Z,5.94
2018-12-13T11:28:16.450Z,5.91
2018-12-13T11:28:56.253Z,5.86
2018-12-13T11:29:55.456Z,5.75
2018-12-13T11:30:55.495Z,5.79
2018-12-13T11:31:55.472Z,5.94
2018-12-13T11:32:55.510Z,5.94
2018-12-13T11:34:16.513Z,5.76
2018-12-13T11:34:55.535Z,5.90
2018-12-13T11:35:55.531Z,5.98
2018-12-13T11:36:55.545Z,5.97
2018-12-13T11:37:55.541Z,5.89
2018-12-13T11:38:55.564Z,5.84
2018-12-13T11:40:16.582Z,5.99
2018-12-13T11:40:55.614Z,5.94
2018-12-13T11:41:55.588Z,5.97
2018-12-13T11:42:55.601Z,5.98
2018-12-13T11:43:55.604Z,6.22
2018-12-13T11:44:55.621Z,6.14
2018-12-13T11:46:16.653Z,6.08
2018-12-13T11:46:55.639Z,6.16
2018-12-13T11:47:55.675Z,6.12
2018-12-13T11:48:55.663Z,6.19
2018-12-13T11:49:55.663Z,6.27
2018-12-13T11:50:55.679Z,6.36
2018-12-13T11:52:16.697Z,6.31
2018-12-13T11:52:55.701Z,6.46
2018-12-13T11:53:55.705Z,6.51
2018-12-13T11:54:55.725Z,6.49
2018-12-13T11:55:55.724Z,6.54
2018-12-13T11:56:55.743Z,6.52
2018-12-13T11:58:16.759Z,6.54
2018-12-13T11:58:55.760Z,6.60
2018-12-13T11:59:55.785Z,6.72
2018-12-13T12:00:55.797Z,6.85
2018-12-13T12:01:55.794Z,6.85
2018-12-13T12:02:55.809Z,6.84
2018-12-13T12:04:16.835Z,6.95
2018-12-13T12:04:55.817Z,6.89
2018-12-13T12:05:55.833Z,6.95
2018-12-13T12:06:55.847Z,7.02
2018-12-13T12:07:55.863Z,7.06
2018-12-13T12:08:55.863Z,7.10
2018-12-13T12:10:16.897Z,7.15
2018-12-13T12:10:55.898Z,7.14
2018-12-13T12:11:55.905Z,7.20
2018-12-13T12:12:55.906Z,7.07
2018-12-13T12:13:55.926Z,7.11
2018-12-13T12:14:55.949Z,7.02
2018-12-13T12:16:16.949Z,7.06
2018-12-13T12:16:55.950Z,7.10
2018-12-13T12:17:55.972Z,7.18
2018-12-13T12:18:55.980Z,7.18
2018-12-13T12:19:55.990Z,7.28
2018-12-13T12:20:55.994Z,7.43
2018-12-13T12:22:17.024Z,7.54
2018-12-13T12:22:56.035Z,7.53
2018-12-13T12:23:56.034Z,7.56
2018-12-13T12:24:56.038Z,7.47
2018-12-13T12:25:56.061Z,7.67
2018-12-13T12:26:56.072Z,7.56
2018-12-13T12:28:17.090Z,7.67
2018-12-13T12:28:56.095Z,7.50
2018-12-13T12:29:56.096Z,7.53
2018-12-13T12:30:56.117Z,7.51
2018-12-13T12:31:56.134Z,7.53
2018-12-13T12:32:56.139Z,7.50
2018-12-13T12:34:17.168Z,7.51
2018-12-13T12:34:56.227Z,7.47
2018-12-13T12:35:56.172Z,7.40
2018-12-13T12:36:56.185Z,7.39
2018-12-13T12:37:56.196Z,7.43
2018-12-13T12:38:56.218Z,7.38
2018-12-13T12:40:17.236Z,7.47
2018-12-13T12:40:56.218Z,7.40
2018-12-13T12:41:56.237Z,7.31
2018-12-13T12:42:56.256Z,7.35
2018-12-13T12:43:56.266Z,7.31
2018-12-13T12:44:56.283Z,7.33
2018-12-13T12:46:17.314Z,7.25
2018-12-13T12:46:56.299Z,7.18
2018-12-13T12:47:56.303Z,7.17
2018-12-13T12:48:56.314Z,7.21
2018-12-13T12:49:56.338Z,7.20
2018-12-13T12:50:56.346Z,7.00
2018-12-13T12:52:17.363Z,6.95
2018-12-13T12:52:56.361Z,6.87
2018-12-13T12:53:56.377Z,6.81
2018-12-13T12:54:56.387Z,6.84
2018-12-13T12:55:56.398Z,6.74
2018-12-13T12:56:56.418Z,6.89
2018-12-13T12:58:17.437Z,6.89
2018-12-13T12:58:56.437Z,6.87
2018-12-13T12:59:56.438Z,6.89
2018-12-13T13:00:56.451Z,6.95
2018-12-13T13:01:56.467Z,6.95
2018-12-13T13:02:56.478Z,7.03
2018-12-13T13:04:17.507Z,7.06
2018-12-13T13:04:56.497Z,7.10
2018-12-13T13:05:56.516Z,7.02
2018-12-13T13:06:56.522Z,7.06
2018-12-13T13:07:57.761Z,7.03
2018-12-13T13:08:56.550Z,7.05
2018-12-13T13:10:17.595Z,7.05
2018-12-13T13:10:56.569Z,7.05
2018-12-13T13:11:56.580Z,7.05
2018-12-13T13:12:56.609Z,7.05
2018-12-13T13:13:56.614Z,7.07
2018-12-13T13:14:56.604Z,7.10
2018-12-13T13:16:17.669Z,7.03
2018-12-13T13:16:56.633Z,7.06
2018-12-13T13:17:56.657Z,7.05
2018-12-13T13:18:56.660Z,7.05